Pecos, TX

2:47 PM CDT on September 19, 2017 (GMT -0500)
Pecos Municipal

Weather History for KPEQ - November, 2011

Change the Weather History Date:

Monday, November 28, 2011

  Actual Average Record
Temperature  
Mean Temperature 52 °F -  
Max Temperature 71 °F 62 °F 91 °F (1949)
Min Temperature 33 °F 30 °F 17 °F (1976)
Degree Days  
Heating Degree Days 13    
Growing Degree Days 2 (Base 50)    
Moisture  
Dew Point 12 °F    
Average Humidity 19    
Maximum Humidity 33    
Minimum Humidity 11    
Precipitation  
Precipitation 0.00 in - - ()
Sea Level Pressure  
Sea Level Pressure 30.16 in    
Wind  
Wind Speed 13 mph (WSW)    
Max Wind Speed 23 mph    
Max Gust Speed 30 mph    
Visibility 10 miles    
Events      
Averages and records for this station are not official NWS values.
T = Trace of Precipitation, MM = Missing Value Source: NWS Daily Summary

Daily Weather History Graph

Daily Weather History Graph

Search for Another Location

Airport or City:

Trip Planner

Search our weather history database for the weather conditions in past years. The results will help you decide how hot, cold, wet, or windy it might be!

Date:

Astronomy

Nov. 28, 2011 Rise Set
Actual Time 7:32 AM CST 5:51 PM CST
Civil Twilight 7:06 AM CST 6:17 PM CST
Nautical Twilight 6:36 AM CST 6:47 PM CST
Astronomical Twilight 6:07 AM CST 7:16 PM CST
Moon 10:45 AM CST (11/28) 9:37 PM CST (11/28)
Length of Visible Light 11h 11m
Length of Day
10h 18m
Waxing Crescent, 16% of the Moon is Illuminated
Nov 28
Waxing Crescent
Dec 2
First Quarter
Dec 10
Full
Dec 17
Last Quarter
Dec 24
New

Hourly Weather History & Observations

Time (CST) Temp. Windchill Dew Point Humidity Pressure Visibility Wind Dir Wind Speed Gust Speed Precip Events Conditions
12:15 AM 33.3 °F 27.1 °F 7.0 °F 33% 30.30 in 10.0 mi SW 6.9 mph - N/A   Clear
12:35 AM 34.3 °F - 7.3 °F 32% 30.29 in 10.0 mi Calm Calm - N/A   Clear
12:55 AM 33.3 °F 30.2 °F 6.4 °F 32% 30.29 in 10.0 mi SSW 3.5 mph - N/A   Clear
1:15 AM 34.0 °F 26.6 °F 6.6 °F 32% 30.28 in 10.0 mi WSW 9.2 mph - N/A   Clear
1:35 AM 42.4 °F 36.1 °F 9.7 °F 26% 30.27 in 10.0 mi WSW 11.5 mph - N/A   Clear
1:55 AM 45.5 °F 38.9 °F 10.0 °F 24% 30.26 in 10.0 mi WSW 15.0 mph - N/A   Clear
2:15 AM 46.2 °F 39.5 °F 10.2 °F 23% 30.25 in 10.0 mi WSW 16.1 mph 21.9 mph N/A   Clear
2:35 AM 46.6 °F - 10.2 °F 23% 30.25 in 10.0 mi WSW 15.0 mph - N/A   Clear
2:55 AM 46.9 °F - 10.2 °F 23% 30.25 in 10.0 mi WSW 17.3 mph 21.9 mph N/A   Clear
3:15 AM 47.3 °F - 10.0 °F 22% 30.25 in 10.0 mi WSW 13.8 mph - N/A   Clear
3:35 AM 46.8 °F - 9.9 °F 22% 30.24 in 10.0 mi WSW 12.7 mph - N/A   Clear
3:55 AM 46.6 °F - 9.5 °F 22% 30.24 in 10.0 mi WSW 13.8 mph - N/A   Clear
4:15 AM 46.2 °F 40.5 °F 9.5 °F 23% 30.23 in 10.0 mi WSW 12.7 mph - N/A   Clear
4:35 AM 45.5 °F 40.3 °F 9.5 °F 23% 30.23 in 10.0 mi WSW 10.4 mph - N/A   Clear
4:55 AM 45.3 °F 40.6 °F 9.5 °F 23% 30.23 in 10.0 mi WSW 9.2 mph - N/A   Clear
5:15 AM 44.6 °F 40.7 °F 9.1 °F 24% 30.23 in 10.0 mi West 6.9 mph - N/A   Clear
5:35 AM 42.6 °F 37.2 °F 8.6 °F 25% 30.22 in 10.0 mi WSW 9.2 mph - N/A   Clear
5:55 AM 41.0 °F 36.4 °F 8.4 °F 26% 30.21 in 10.0 mi West 6.9 mph - N/A   Clear
6:35 AM 38.5 °F 32.7 °F 9.3 °F 30% 30.20 in 10.0 mi WSW 8.1 mph - N/A   Clear
6:55 AM 40.3 °F 34.4 °F 8.6 °F 27% 30.20 in 10.0 mi SW 9.2 mph - N/A   Clear
7:15 AM 41.5 °F 35.4 °F 8.6 °F 26% 30.20 in 10.0 mi WSW 10.4 mph - N/A   Clear
7:55 AM 43.5 °F 37.5 °F 9.7 °F 25% 30.20 in 10.0 mi WSW 11.5 mph - N/A   Clear
8:15 AM 45.5 °F 39.2 °F 10.4 °F 24% 30.20 in 10.0 mi WSW 13.8 mph - N/A   Clear
8:35 AM 48.4 °F - 10.8 °F 22% 30.20 in 10.0 mi WSW 13.8 mph - N/A   Clear
8:55 AM 50.7 °F - 10.9 °F 20% 30.20 in 10.0 mi WSW 15.0 mph - N/A   Clear
9:15 AM 53.1 °F - 11.3 °F 19% 30.20 in 10.0 mi WSW 17.3 mph 21.9 mph N/A   Clear
9:35 AM 55.2 °F - 11.3 °F 17% 30.19 in 10.0 mi WSW 19.6 mph 25.3 mph N/A   Clear
9:55 AM 57.0 °F - 11.3 °F 16% 30.19 in 10.0 mi WSW 23.0 mph 27.6 mph N/A   Clear
10:15 AM 58.1 °F - 11.5 °F 16% 30.19 in 10.0 mi WSW 21.9 mph - N/A   Clear
10:35 AM 59.4 °F - 11.7 °F 15% 30.19 in 10.0 mi WSW 21.9 mph 28.8 mph N/A   Clear
10:55 AM 60.6 °F - 12.0 °F 15% 30.18 in 10.0 mi WSW 23.0 mph 26.5 mph N/A   Clear
11:15 AM 62.4 °F - 12.4 °F 14% 30.17 in 10.0 mi WSW 23.0 mph 28.8 mph N/A   Clear
11:35 AM 63.9 °F - 12.9 °F 14% 30.17 in 10.0 mi WSW 23.0 mph 28.8 mph N/A   Clear
11:55 AM 65.1 °F - 13.3 °F 13% 30.16 in 10.0 mi West 23.0 mph 29.9 mph N/A   Clear
12:15 PM 66.6 °F - 13.8 °F 13% 30.15 in 10.0 mi WSW 20.7 mph 27.6 mph N/A   Clear
12:35 PM 67.5 °F - 14.0 °F 13% 30.13 in 10.0 mi WSW 21.9 mph 25.3 mph N/A   Clear
1:15 PM 68.7 °F - 14.4 °F 12% 30.12 in 10.0 mi WSW 21.9 mph 29.9 mph N/A   Clear
1:35 PM 69.6 °F - 14.5 °F 12% 30.11 in 10.0 mi WSW 19.6 mph 26.5 mph N/A   Clear
1:55 PM 70.3 °F - 14.9 °F 12% 30.10 in 10.0 mi West 20.7 mph 25.3 mph N/A   Clear
2:15 PM 70.7 °F - 14.9 °F 12% 30.09 in 10.0 mi WSW 23.0 mph 27.6 mph N/A   Clear
2:35 PM 70.9 °F - 15.1 °F 12% 30.08 in 10.0 mi West 21.9 mph 27.6 mph N/A   Clear
2:55 PM 71.2 °F - 14.9 °F 12% 30.07 in 10.0 mi West 21.9 mph 26.5 mph N/A   Clear
3:15 PM 71.6 °F - 14.9 °F 11% 30.06 in 10.0 mi West 18.4 mph 26.5 mph N/A   Clear
3:35 PM 71.6 °F - 14.9 °F 11% 30.06 in 10.0 mi WSW 18.4 mph - N/A   Clear
3:55 PM 71.6 °F - 14.9 °F 11% 30.06 in 10.0 mi WSW 21.9 mph 26.5 mph N/A   Clear
4:15 PM 71.6 °F - 15.3 °F 12% 30.06 in 10.0 mi WSW 20.7 mph 27.6 mph N/A   Clear
4:35 PM 71.1 °F - 15.4 °F 12% 30.06 in 10.0 mi WSW 19.6 mph 24.2 mph N/A   Clear
4:55 PM 70.5 °F - 15.1 °F 12% 30.05 in 10.0 mi WSW 20.7 mph - N/A   Clear
5:35 PM 68.2 °F - 14.7 °F 13% 30.05 in 10.0 mi WSW 15.0 mph - N/A   Clear
5:55 PM 66.0 °F - 14.4 °F 14% 30.05 in 10.0 mi West 12.7 mph - N/A   Clear
6:15 PM 63.7 °F - 14.4 °F 15% 30.06 in 10.0 mi West 12.7 mph - N/A   Clear
6:35 PM 62.2 °F - 14.5 °F 16% 30.06 in 10.0 mi WSW 11.5 mph - N/A   Clear
6:55 PM 61.0 °F - 14.9 °F 17% 30.06 in 10.0 mi SW 9.2 mph - N/A   Clear
7:15 PM 59.0 °F - 14.9 °F 18% 30.06 in 10.0 mi WSW 10.4 mph - N/A   Clear
7:35 PM 57.7 °F - 15.3 °F 19% 30.07 in 10.0 mi SW 6.9 mph - N/A   Clear
8:15 PM 57.4 °F - 16.0 °F 20% 30.07 in 10.0 mi SW 8.1 mph - N/A   Clear
8:35 PM 54.7 °F - 15.3 °F 21% 30.07 in 10.0 mi WSW 9.2 mph - N/A   Clear
8:55 PM 53.8 °F - 14.4 °F 21% 30.07 in 10.0 mi WSW 9.2 mph - N/A   Clear
9:15 PM 52.5 °F - 13.8 °F 22% 30.08 in 10.0 mi SW 8.1 mph - N/A   Clear
9:35 PM 50.5 °F - 13.6 °F 23% 30.08 in 10.0 mi SW 9.2 mph - N/A   Clear
9:55 PM 50.7 °F - 14.4 °F 24% 30.09 in 10.0 mi WSW 9.2 mph - N/A   Clear
10:15 PM 49.5 °F - 14.4 °F 25% 30.09 in 10.0 mi WSW 8.1 mph - N/A   Clear
10:35 PM 49.5 °F - 14.9 °F 25% 30.09 in 10.0 mi WSW 8.1 mph - N/A   Clear
11:15 PM 45.5 °F 41.8 °F 14.0 °F 28% 30.10 in 10.0 mi North 6.9 mph - N/A   Clear
11:35 PM 46.4 °F 42.9 °F 15.1 °F 28% 30.11 in 10.0 mi NW 6.9 mph - N/A   Clear
11:55 PM 46.2 °F 42.7 °F 15.1 °F 29% 30.12 in 10.0 mi NW 6.9 mph - N/A   Clear